createdAt,value
2023-05-06T00:00:26.551Z,1008.43
2023-05-06T00:00:58.210Z,1008.33
2023-05-06T00:01:29.338Z,1008.33
2023-05-06T00:02:01.204Z,1008.23
2023-05-06T00:02:33.394Z,1008.23
2023-05-06T00:03:05.238Z,1008.43
2023-05-06T00:03:34.911Z,1008.33
2023-05-06T00:03:53.242Z,1008.33
2023-05-06T00:04:25.859Z,1008.33
2023-05-06T00:04:42.784Z,1008.33
2023-05-06T00:05:13.302Z,1008.33
2023-05-06T00:05:34.862Z,1008.43
2023-05-06T00:06:01.858Z,1008.43
2023-05-06T00:06:33.130Z,1008.43
2023-05-06T00:07:05.136Z,1008.43
2023-05-06T00:07:34.732Z,1008.33
2023-05-06T00:07:53.181Z,1008.33
2023-05-06T00:08:25.943Z,1008.33
2023-05-06T00:08:58.193Z,1008.13
2023-05-06T00:09:29.999Z,1008.13
2023-05-06T00:10:01.364Z,1008.43
2023-05-06T00:10:33.324Z,1008.43
2023-05-06T00:11:05.167Z,1008.23
2023-05-06T00:11:34.836Z,1008.43
2023-05-06T00:11:53.890Z,1008.43
2023-05-06T00:12:25.165Z,1008.43
2023-05-06T00:12:42.601Z,1008.43
2023-05-06T00:13:13.897Z,1008.43
2023-05-06T00:13:34.845Z,1008.33
2023-05-06T00:14:01.133Z,1008.33
2023-05-06T00:14:33.820Z,1008.33
2023-05-06T00:15:05.796Z,1008.23
2023-05-06T00:15:34.748Z,1008.43
2023-05-06T00:15:54.079Z,1008.43
2023-05-06T00:16:25.462Z,1008.43
2023-05-06T00:16:42.574Z,1008.23
2023-05-06T00:17:13.875Z,1008.23
2023-05-06T00:17:34.877Z,1008.43
2023-05-06T00:18:01.249Z,1008.43
2023-05-06T00:18:33.190Z,1008.43
2023-05-06T00:19:05.142Z,1008.33
2023-05-06T00:19:34.780Z,1008.43
2023-05-06T00:19:53.117Z,1008.43
2023-05-06T00:20:26.133Z,1008.43
2023-05-06T00:20:58.073Z,1008.33
2023-05-06T00:21:29.279Z,1008.33
2023-05-06T00:22:01.319Z,1008.33
2023-05-06T00:22:33.110Z,1008.33
2023-05-06T00:23:05.242Z,1008.33
2023-05-06T00:23:34.723Z,1008.43
2023-05-06T00:23:53.197Z,1008.43
2023-05-06T00:24:25.872Z,1008.43
2023-05-06T00:24:42.783Z,1008.43
2023-05-06T00:25:13.463Z,1008.43
2023-05-06T00:25:34.744Z,1008.33
2023-05-06T00:26:01.860Z,1008.33
2023-05-06T00:26:33.216Z,1008.33
2023-05-06T00:27:05.147Z,1008.33
2023-05-06T00:27:34.790Z,1008.23
2023-05-06T00:27:53.163Z,1008.23
2023-05-06T00:28:25.874Z,1008.23
2023-05-06T00:28:42.733Z,1008.13
2023-05-06T00:29:13.300Z,1008.13
2023-05-06T00:29:34.710Z,1008.13
2023-05-06T00:30:02.198Z,1008.13
2023-05-06T00:30:33.118Z,1008.13
2023-05-06T00:31:05.935Z,1008.02
2023-05-06T00:31:34.752Z,1008.23
2023-05-06T00:31:53.317Z,1008.23
2023-05-06T00:32:25.909Z,1008.23
2023-05-06T00:32:42.818Z,1008.23
2023-05-06T00:33:13.238Z,1008.23
2023-05-06T00:33:34.766Z,1008.43
2023-05-06T00:34:02.497Z,1008.43
2023-05-06T00:34:33.284Z,1008.43
2023-05-06T00:35:05.376Z,1008.33
2023-05-06T00:35:34.788Z,1008.13
2023-05-06T00:35:53.309Z,1008.13
2023-05-06T00:36:25.887Z,1008.13
2023-05-06T00:36:42.890Z,1008.13
2023-05-06T00:37:13.170Z,1008.13
2023-05-06T00:37:35.737Z,1008.23
2023-05-06T00:38:01.989Z,1008.23
2023-05-06T00:38:33.083Z,1008.23
2023-05-06T00:39:05.141Z,1008.02
2023-05-06T00:39:34.762Z,1008.23
2023-05-06T00:39:53.120Z,1008.23
2023-05-06T00:40:26.046Z,1008.23
2023-05-06T00:40:42.668Z,1008.33
2023-05-06T00:41:13.157Z,1008.33
2023-05-06T00:41:34.752Z,1008.23
2023-05-06T00:42:01.860Z,1008.23
2023-05-06T00:42:33.230Z,1008.23
2023-05-06T00:43:05.219Z,1008.33
2023-05-06T00:43:34.972Z,1008.02
2023-05-06T00:43:53.125Z,1008.02
2023-05-06T00:44:25.824Z,1008.02
2023-05-06T00:44:42.769Z,1008.33
2023-05-06T00:45:13.451Z,1008.33
2023-05-06T00:45:34.758Z,1008.13
2023-05-06T00:46:01.862Z,1008.13
2023-05-06T00:46:33.111Z,1008.13
2023-05-06T00:47:05.151Z,1008.02
2023-05-06T00:47:34.739Z,1008.02
2023-05-06T00:47:53.162Z,1008.02
2023-05-06T00:48:25.859Z,1008.02
2023-05-06T00:48:43.002Z,1008.23
2023-05-06T00:49:13.143Z,1008.23
2023-05-06T00:49:34.751Z,1008.23
2023-05-06T00:50:01.934Z,1008.23
2023-05-06T00:50:33.115Z,1008.23
2023-05-06T00:51:05.880Z,1008.13
2023-05-06T00:51:34.770Z,1008.13
2023-05-06T00:51:53.101Z,1008.13
2023-05-06T00:52:25.905Z,1008.13
2023-05-06T00:52:42.797Z,1008.02
2023-05-06T00:53:13.092Z,1008.02
2023-05-06T00:53:34.850Z,1008.13
2023-05-06T00:54:01.801Z,1008.13
2023-05-06T00:54:33.084Z,1008.13
2023-05-06T00:55:05.377Z,1008.13
2023-05-06T00:55:34.780Z,1008.13
2023-05-06T00:55:53.344Z,1008.13
2023-05-06T00:56:25.950Z,1008.13
2023-05-06T00:56:58.191Z,1008.23
2023-05-06T00:57:29.213Z,1008.23
2023-05-06T00:58:01.176Z,1008.23
2023-05-06T00:58:33.116Z,1008.23
2023-05-06T00:59:05.205Z,1008.23
2023-05-06T00:59:34.748Z,1008.23
2023-05-06T00:59:53.121Z,1008.23
2023-05-06T01:00:26.510Z,1008.23
2023-05-06T01:00:58.131Z,1008.13
2023-05-06T01:01:29.242Z,1008.13
2023-05-06T01:02:01.208Z,1008.23
2023-05-06T01:02:45.879Z,1008.23
2023-05-06T01:03:05.268Z,1008.13
2023-05-06T01:03:34.820Z,1008.13
2023-05-06T01:03:53.264Z,1008.13
2023-05-06T01:04:25.956Z,1008.13
2023-05-06T01:04:58.156Z,1008.13
2023-05-06T01:05:29.396Z,1008.13
2023-05-06T01:06:01.179Z,1008.02
2023-05-06T01:06:33.149Z,1008.02
2023-05-06T01:07:05.187Z,1008.33
2023-05-06T01:07:34.901Z,1008.23
2023-05-06T01:07:53.191Z,1008.23
2023-05-06T01:08:25.990Z,1008.23
2023-05-06T01:08:58.125Z,1008.33
2023-05-06T01:09:29.386Z,1008.33
2023-05-06T01:10:01.322Z,1007.92
2023-05-06T01:10:33.114Z,1007.92
2023-05-06T01:11:05.134Z,1008.43
2023-05-06T01:11:34.739Z,1008.23
2023-05-06T01:11:53.210Z,1008.23
2023-05-06T01:12:25.938Z,1008.23
2023-05-06T01:12:57.184Z,1008.13
2023-05-06T01:13:29.213Z,1008.13
2023-05-06T01:14:01.238Z,1008.23
2023-05-06T01:14:33.589Z,1008.23
2023-05-06T01:15:05.513Z,1008.23
2023-05-06T01:15:34.779Z,1008.23
2023-05-06T01:15:59.127Z,1008.23
2023-05-06T01:16:25.217Z,1008.23
2023-05-06T01:16:42.313Z,1008.13
2023-05-06T01:17:14.022Z,1008.13
2023-05-06T01:17:34.804Z,1008.33
2023-05-06T01:18:01.180Z,1008.33
2023-05-06T01:18:34.224Z,1008.33
2023-05-06T01:19:05.127Z,1008.33
2023-05-06T01:19:35.357Z,1008.13
2023-05-06T01:19:53.865Z,1008.13
2023-05-06T01:20:25.388Z,1008.13
2023-05-06T01:20:42.409Z,1008.13
2023-05-06T01:21:13.876Z,1008.13
2023-05-06T01:21:34.891Z,1008.23
2023-05-06T01:22:02.155Z,1008.23
2023-05-06T01:22:36.276Z,1008.23
2023-05-06T01:23:06.204Z,1008.23
2023-05-06T01:23:34.730Z,1008.13
2023-05-06T01:23:53.151Z,1008.13
2023-05-06T01:24:34.773Z,1008.13
2023-05-06T01:24:57.157Z,1008.13
2023-05-06T01:25:29.385Z,1008.13
2023-05-06T01:26:01.191Z,1008.13
2023-05-06T01:26:33.097Z,1008.13
2023-05-06T01:27:05.216Z,1008.23
2023-05-06T01:27:36.144Z,1008.13
2023-05-06T01:28:09.158Z,1008.13
2023-05-06T01:28:36.543Z,1008.33
2023-05-06T01:28:57.982Z,1008.33
2023-05-06T01:29:29.165Z,1008.33
2023-05-06T01:30:01.567Z,1008.13
2023-05-06T01:30:33.102Z,1008.13
2023-05-06T01:31:05.266Z,1008.33
2023-05-06T01:31:34.762Z,1008.23
2023-05-06T01:31:53.145Z,1008.23
2023-05-06T01:32:25.901Z,1008.23
2023-05-06T01:32:42.796Z,1008.23
2023-05-06T01:33:13.211Z,1008.23
2023-05-06T01:33:34.755Z,1008.13
2023-05-06T01:34:02.185Z,1008.13
2023-05-06T01:34:33.143Z,1008.13
2023-05-06T01:35:05.397Z,1008.13
2023-05-06T01:35:35.739Z,1008.23
2023-05-06T01:35:53.415Z,1008.23
2023-05-06T01:36:25.943Z,1008.23
2023-05-06T01:36:42.828Z,1007.92
2023-05-06T01:37:13.190Z,1007.92
2023-05-06T01:37:34.725Z,1008.02
2023-05-06T01:38:01.858Z,1008.02
2023-05-06T01:38:33.105Z,1008.02
2023-05-06T01:39:05.338Z,1008.13
2023-05-06T01:39:35.144Z,1008.23
2023-05-06T01:39:53.167Z,1008.23
2023-05-06T01:40:26.180Z,1008.23
2023-05-06T01:40:58.169Z,1008.13
2023-05-06T01:41:29.208Z,1008.13
2023-05-06T01:42:01.280Z,1008.13
2023-05-06T01:42:33.189Z,1008.13
2023-05-06T01:43:05.186Z,1008.33
2023-05-06T01:43:34.997Z,1008.33
2023-05-06T01:43:53.216Z,1008.33
2023-05-06T01:44:25.861Z,1008.33
2023-05-06T01:44:42.802Z,1007.92
2023-05-06T01:45:13.379Z,1007.92
2023-05-06T01:45:34.726Z,1008.13
2023-05-06T01:46:01.987Z,1008.13
2023-05-06T01:46:33.112Z,1008.13
2023-05-06T01:47:05.196Z,1008.13
2023-05-06T01:47:34.787Z,1008.23
2023-05-06T01:47:53.187Z,1008.23
2023-05-06T01:48:26.010Z,1008.23
2023-05-06T01:48:42.849Z,1008.02
2023-05-06T01:49:13.156Z,1008.02
2023-05-06T01:49:34.731Z,1008.02
2023-05-06T01:50:01.995Z,1008.02
2023-05-06T01:50:33.144Z,1008.02
2023-05-06T01:51:05.232Z,1008.33
2023-05-06T01:51:35.111Z,1008.13
2023-05-06T01:51:53.182Z,1008.13
2023-05-06T01:52:26.020Z,1008.13
2023-05-06T01:52:58.208Z,1008.23
2023-05-06T01:53:29.217Z,1008.23
2023-05-06T01:54:01.265Z,1008.13
2023-05-06T01:54:33.127Z,1008.13
2023-05-06T01:55:05.346Z,1008.23
2023-05-06T01:55:34.810Z,1008.33
2023-05-06T01:55:53.293Z,1008.33
2023-05-06T01:56:25.979Z,1008.33
2023-05-06T01:56:58.239Z,1008.23
2023-05-06T01:57:29.093Z,1008.23
2023-05-06T01:58:01.181Z,1008.13
2023-05-06T01:58:33.154Z,1008.13
2023-05-06T01:59:21.998Z,1008.23
2023-05-06T01:59:53.113Z,1008.13
2023-05-06T02:00:26.687Z,1008.13
2023-05-06T02:00:43.040Z,1008.33
2023-05-06T02:01:13.222Z,1008.33
2023-05-06T02:01:34.765Z,1008.23
2023-05-06T02:02:02.019Z,1008.23
2023-05-06T02:02:33.237Z,1008.23
2023-05-06T02:03:05.314Z,1008.13
2023-05-06T02:03:35.691Z,1008.23
2023-05-06T02:03:53.350Z,1008.23
2023-05-06T02:04:26.559Z,1008.23
2023-05-06T02:04:42.728Z,1008.13
2023-05-06T02:05:13.328Z,1008.13
2023-05-06T02:05:35.501Z,1008.13
2023-05-06T02:06:01.916Z,1008.13
2023-05-06T02:06:33.179Z,1008.13
2023-05-06T02:07:05.250Z,1008.33
2023-05-06T02:07:34.720Z,1008.23
2023-05-06T02:07:53.167Z,1008.23
2023-05-06T02:08:26.352Z,1008.23
2023-05-06T02:08:42.946Z,1008.33
2023-05-06T02:09:13.211Z,1008.33
2023-05-06T02:09:34.722Z,1008.43
2023-05-06T02:10:02.199Z,1008.43
2023-05-06T02:10:33.152Z,1008.43
2023-05-06T02:11:05.130Z,1008.33
2023-05-06T02:11:34.721Z,1008.33
2023-05-06T02:11:53.151Z,1008.33
2023-05-06T02:12:26.064Z,1008.33
2023-05-06T02:12:42.667Z,1008.23
2023-05-06T02:13:13.266Z,1008.23
2023-05-06T02:13:34.761Z,1008.13
2023-05-06T02:14:01.969Z,1008.13
2023-05-06T02:14:33.131Z,1008.13
2023-05-06T02:15:05.477Z,1008.43
2023-05-06T02:15:34.784Z,1008.33
2023-05-06T02:15:53.359Z,1008.33
2023-05-06T02:16:25.936Z,1008.33
2023-05-06T02:16:42.864Z,1008.23
2023-05-06T02:17:13.145Z,1008.23
2023-05-06T02:17:34.858Z,1008.13
2023-05-06T02:18:01.935Z,1008.13
2023-05-06T02:18:33.150Z,1008.13
2023-05-06T02:19:05.806Z,1008.23
2023-05-06T02:19:35.373Z,1008.23
2023-05-06T02:19:53.194Z,1008.23
2023-05-06T02:20:26.154Z,1008.23
2023-05-06T02:20:58.148Z,1008.23
2023-05-06T02:21:29.161Z,1008.23
2023-05-06T02:22:01.461Z,1008.23
2023-05-06T02:22:33.483Z,1008.23
2023-05-06T02:23:05.204Z,1008.23
2023-05-06T02:23:34.702Z,1008.23
2023-05-06T02:23:53.160Z,1008.23
2023-05-06T02:24:26.987Z,1008.23
2023-05-06T02:24:57.124Z,1008.23
2023-05-06T02:25:29.408Z,1008.23
2023-05-06T02:26:01.248Z,1008.23
2023-05-06T02:26:33.160Z,1008.23
2023-05-06T02:27:05.178Z,1008.23
2023-05-06T02:27:34.758Z,1008.33
2023-05-06T02:27:53.846Z,1008.33
2023-05-06T02:28:25.165Z,1008.33
2023-05-06T02:28:42.230Z,1008.23
2023-05-06T02:29:13.885Z,1008.23
2023-05-06T02:29:34.729Z,1008.23
2023-05-06T02:30:01.486Z,1008.23
2023-05-06T02:30:33.925Z,1008.23
2023-05-06T02:31:05.197Z,1008.33
2023-05-06T02:31:34.804Z,1008.33
2023-05-06T02:31:53.933Z,1008.33
2023-05-06T02:32:25.114Z,1008.33
2023-05-06T02:32:42.318Z,1008.33
2023-05-06T02:33:14.183Z,1008.33
2023-05-06T02:33:34.688Z,1008.33
2023-05-06T02:34:01.500Z,1008.33
2023-05-06T02:34:33.800Z,1008.33
2023-05-06T02:35:05.424Z,1008.23
2023-05-06T02:35:34.784Z,1008.43
2023-05-06T02:35:54.872Z,1008.43
2023-05-06T02:36:25.152Z,1008.43
2023-05-06T02:36:57.148Z,1008.33
2023-05-06T02:37:29.162Z,1008.33
2023-05-06T02:38:01.221Z,1008.23
2023-05-06T02:38:33.147Z,1008.23
2023-05-06T02:39:05.316Z,1008.33
2023-05-06T02:39:34.711Z,1008.13
2023-05-06T02:39:53.610Z,1008.13
2023-05-06T02:40:26.174Z,1008.13
2023-05-06T02:40:58.153Z,1008.23
2023-05-06T02:41:29.169Z,1008.23
2023-05-06T02:42:01.180Z,1008.13
2023-05-06T02:42:33.167Z,1008.13
2023-05-06T02:43:05.250Z,1008.13
2023-05-06T02:43:35.820Z,1008.23
2023-05-06T02:43:53.197Z,1008.23
2023-05-06T02:44:26.042Z,1008.23
2023-05-06T02:44:58.159Z,1008.33
2023-05-06T02:45:29.459Z,1008.33
2023-05-06T02:46:01.224Z,1008.23
2023-05-06T02:46:33.158Z,1008.23
2023-05-06T02:47:05.173Z,1008.23
2023-05-06T02:47:34.769Z,1008.23
2023-05-06T02:47:54.063Z,1008.23
2023-05-06T02:48:36.028Z,1008.13
2023-05-06T02:48:57.184Z,1008.13
2023-05-06T02:49:29.136Z,1008.13
2023-05-06T02:50:02.260Z,1008.02
2023-05-06T02:50:33.795Z,1008.02
2023-05-06T02:51:05.209Z,1008.23
2023-05-06T02:51:34.793Z,1008.23
2023-05-06T02:51:53.194Z,1008.23
2023-05-06T02:52:25.942Z,1008.23
2023-05-06T02:52:43.650Z,1008.23
2023-05-06T02:53:13.240Z,1008.23
2023-05-06T02:53:35.072Z,1008.23
2023-05-06T02:54:01.882Z,1008.23
2023-05-06T02:54:33.144Z,1008.23
2023-05-06T02:55:05.277Z,1008.23
2023-05-06T02:55:34.702Z,1008.02
2023-05-06T02:55:53.319Z,1008.02
2023-05-06T02:56:25.861Z,1008.02
2023-05-06T02:56:42.719Z,1008.13
2023-05-06T02:57:13.125Z,1008.13
2023-05-06T02:57:34.739Z,1008.23
2023-05-06T02:58:01.914Z,1008.23
2023-05-06T02:58:33.200Z,1008.23
2023-05-06T02:59:05.135Z,1008.13
2023-05-06T02:59:34.720Z,1008.23
2023-05-06T02:59:53.118Z,1008.23
2023-05-06T03:00:26.445Z,1008.23
2023-05-06T03:00:58.189Z,1008.33
2023-05-06T03:01:29.130Z,1008.33
2023-05-06T03:02:01.204Z,1008.33
2023-05-06T03:02:33.646Z,1008.33
2023-05-06T03:03:05.200Z,1008.23
2023-05-06T03:03:34.732Z,1008.13
2023-05-06T03:03:53.230Z,1008.13
2023-05-06T03:04:26.047Z,1008.13
2023-05-06T03:04:58.181Z,1008.23
2023-05-06T03:05:29.520Z,1008.23
2023-05-06T03:06:01.278Z,1008.13
2023-05-06T03:06:33.663Z,1008.13
2023-05-06T03:07:05.210Z,1008.33
2023-05-06T03:07:34.724Z,1008.13
2023-05-06T03:07:53.167Z,1008.13
2023-05-06T03:08:26.005Z,1008.13
2023-05-06T03:08:58.134Z,1008.13
2023-05-06T03:09:29.488Z,1008.13
2023-05-06T03:10:01.417Z,1008.23
2023-05-06T03:10:34.128Z,1008.23
2023-05-06T03:11:07.331Z,1008.13
2023-05-06T03:11:34.707Z,1008.13
2023-05-06T03:11:53.189Z,1008.13
2023-05-06T03:12:25.888Z,1008.13
2023-05-06T03:12:42.790Z,1008.02
2023-05-06T03:13:13.276Z,1008.02
2023-05-06T03:13:34.706Z,1008.13
2023-05-06T03:14:01.856Z,1008.13
2023-05-06T03:14:33.808Z,1008.13
2023-05-06T03:15:05.929Z,1008.23
2023-05-06T03:15:35.759Z,1008.23
2023-05-06T03:15:54.129Z,1008.23
2023-05-06T03:16:26.011Z,1008.23
2023-05-06T03:16:42.844Z,1008.23
2023-05-06T03:17:13.150Z,1008.23
2023-05-06T03:17:34.993Z,1007.92
2023-05-06T03:18:01.261Z,1007.92
2023-05-06T03:18:33.838Z,1007.92
2023-05-06T03:19:05.173Z,1008.13
2023-05-06T03:19:35.169Z,1008.13
2023-05-06T03:19:53.776Z,1008.13
2023-05-06T03:20:25.286Z,1008.13
2023-05-06T03:20:42.308Z,1008.23
2023-05-06T03:21:14.394Z,1008.23
2023-05-06T03:21:34.829Z,1008.13
2023-05-06T03:22:01.503Z,1008.13
2023-05-06T03:22:34.587Z,1008.13
2023-05-06T03:23:05.250Z,1007.92
2023-05-06T03:23:34.742Z,1008.13
2023-05-06T03:23:53.898Z,1008.13
2023-05-06T03:24:25.062Z,1008.13
2023-05-06T03:24:42.233Z,1008.13
2023-05-06T03:25:14.072Z,1008.13
2023-05-06T03:25:34.737Z,1008.33
2023-05-06T03:26:01.181Z,1008.33
2023-05-06T03:26:33.762Z,1008.33
2023-05-06T03:27:05.197Z,1008.23
2023-05-06T03:27:34.743Z,1008.23
2023-05-06T03:27:54.780Z,1008.23
2023-05-06T03:28:25.164Z,1008.23
2023-05-06T03:28:42.298Z,1008.23
2023-05-06T03:29:13.921Z,1008.23
2023-05-06T03:29:34.756Z,1008.23
2023-05-06T03:30:01.447Z,1008.23
2023-05-06T03:30:34.527Z,1008.23
2023-05-06T03:31:06.010Z,1008.13
2023-05-06T03:31:34.906Z,1008.02
2023-05-06T03:31:53.988Z,1008.02
2023-05-06T03:32:25.144Z,1008.02
2023-05-06T03:32:42.250Z,1008.13
2023-05-06T03:33:13.909Z,1008.13
2023-05-06T03:33:34.735Z,1008.13
2023-05-06T03:34:01.448Z,1008.13
2023-05-06T03:34:33.802Z,1008.13
2023-05-06T03:35:05.362Z,1008.02
2023-05-06T03:35:34.725Z,1008.02
2023-05-06T03:35:54.146Z,1008.02
2023-05-06T03:36:25.150Z,1008.02
2023-05-06T03:36:42.189Z,1008.02
2023-05-06T03:37:13.981Z,1008.02
2023-05-06T03:37:34.804Z,1008.13
2023-05-06T03:38:01.202Z,1008.13
2023-05-06T03:38:34.351Z,1008.13
2023-05-06T03:39:05.347Z,1007.92
2023-05-06T03:39:35.803Z,1008.02
2023-05-06T03:39:53.891Z,1008.02
2023-05-06T03:40:25.262Z,1008.02
2023-05-06T03:40:42.223Z,1008.02
2023-05-06T03:41:14.059Z,1008.02
2023-05-06T03:41:34.800Z,1008.23
2023-05-06T03:42:01.129Z,1008.23
2023-05-06T03:42:33.981Z,1008.23
2023-05-06T03:43:05.094Z,1008.02
2023-05-06T03:43:34.726Z,1008.13
2023-05-06T03:43:53.814Z,1008.13
2023-05-06T03:44:25.334Z,1008.13
2023-05-06T03:44:42.332Z,1008.23
2023-05-06T03:45:14.188Z,1008.23
2023-05-06T03:45:34.926Z,1008.23
2023-05-06T03:46:01.305Z,1008.23
2023-05-06T03:46:33.893Z,1008.23
2023-05-06T03:47:05.121Z,1008.13
2023-05-06T03:47:34.795Z,1008.13
2023-05-06T03:47:53.881Z,1008.13
2023-05-06T03:48:25.146Z,1008.13
2023-05-06T03:48:42.493Z,1008.13
2023-05-06T03:49:14.464Z,1008.13
2023-05-06T03:49:34.763Z,1008.13
2023-05-06T03:50:01.303Z,1008.13
2023-05-06T03:50:34.096Z,1008.13
2023-05-06T03:51:05.193Z,1008.13
2023-05-06T03:51:34.796Z,1008.33
2023-05-06T03:51:53.926Z,1008.33
2023-05-06T03:52:25.106Z,1008.33
2023-05-06T03:52:42.219Z,1008.13
2023-05-06T03:53:14.033Z,1008.13
2023-05-06T03:53:34.701Z,1008.02
2023-05-06T03:54:01.161Z,1008.02
2023-05-06T03:54:33.917Z,1008.02
2023-05-06T03:55:05.336Z,1008.13
2023-05-06T03:55:34.763Z,1008.13
2023-05-06T03:55:54.078Z,1008.13
2023-05-06T03:56:25.166Z,1008.13
2023-05-06T03:56:42.250Z,1008.02
2023-05-06T03:57:13.965Z,1008.02
2023-05-06T03:57:34.730Z,1008.13
2023-05-06T03:58:01.188Z,1008.13
2023-05-06T03:58:33.907Z,1008.13
2023-05-06T03:59:05.197Z,1008.13
2023-05-06T03:59:34.876Z,1008.13
2023-05-06T03:59:53.957Z,1008.13
2023-05-06T04:00:25.624Z,1008.13
2023-05-06T04:00:42.441Z,1008.33
2023-05-06T04:01:14.112Z,1008.33
2023-05-06T04:01:34.847Z,1008.33
2023-05-06T04:02:01.520Z,1008.33
2023-05-06T04:02:34.359Z,1008.33
2023-05-06T04:03:05.402Z,1008.02
2023-05-06T04:03:35.085Z,1008.33
2023-05-06T04:03:54.014Z,1008.33
2023-05-06T04:04:25.346Z,1008.33
2023-05-06T04:04:42.379Z,1008.02
2023-05-06T04:05:15.036Z,1008.02
2023-05-06T04:05:35.047Z,1008.23
2023-05-06T04:06:01.393Z,1008.23
2023-05-06T04:06:34.196Z,1008.23
2023-05-06T04:07:05.347Z,1008.33
2023-05-06T04:07:35.365Z,1008.33
2023-05-06T04:07:54.008Z,1008.33
2023-05-06T04:08:25.232Z,1008.33
2023-05-06T04:08:42.449Z,1008.43
2023-05-06T04:09:13.987Z,1008.43
2023-05-06T04:09:35.022Z,1008.23
2023-05-06T04:10:01.519Z,1008.23
2023-05-06T04:10:34.753Z,1008.23
2023-05-06T04:11:05.347Z,1008.02
2023-05-06T04:11:34.914Z,1008.33
2023-05-06T04:12:10.460Z,1008.33
2023-05-06T04:12:34.855Z,1008.23
2023-05-06T04:12:57.282Z,1008.23
2023-05-06T04:13:30.073Z,1008.23
2023-05-06T04:14:01.321Z,1008.13
2023-05-06T04:14:33.360Z,1008.13
2023-05-06T04:15:06.137Z,1008.13
2023-05-06T04:15:34.810Z,1008.02
2023-05-06T04:15:55.098Z,1008.02
2023-05-06T04:16:25.394Z,1008.02
2023-05-06T04:16:42.576Z,1007.92
2023-05-06T04:17:13.986Z,1007.92
2023-05-06T04:17:34.830Z,1008.33
2023-05-06T04:18:01.371Z,1008.33
2023-05-06T04:18:33.961Z,1008.33
2023-05-06T04:19:06.597Z,1008.13
2023-05-06T04:19:34.899Z,1008.13
2023-05-06T04:19:54.020Z,1008.13
2023-05-06T04:20:25.441Z,1008.13
2023-05-06T04:20:42.409Z,1008.23
2023-05-06T04:21:13.271Z,1008.23
2023-05-06T04:21:34.846Z,1008.02
2023-05-06T04:22:02.281Z,1008.02
2023-05-06T04:22:33.257Z,1008.02
2023-05-06T04:23:05.316Z,1008.43
2023-05-06T04:23:34.913Z,1008.33
2023-05-06T04:23:53.305Z,1008.33
2023-05-06T04:24:26.134Z,1008.33
2023-05-06T04:24:42.932Z,1008.02
2023-05-06T04:25:13.440Z,1008.02
2023-05-06T04:25:34.956Z,1008.23
2023-05-06T04:26:02.171Z,1008.23
2023-05-06T04:26:33.796Z,1008.23
2023-05-06T04:27:05.374Z,1008.23
2023-05-06T04:27:34.902Z,1008.23
2023-05-06T04:27:53.248Z,1008.23
2023-05-06T04:28:26.280Z,1008.23
2023-05-06T04:28:42.689Z,1008.33
2023-05-06T04:29:13.288Z,1008.33
2023-05-06T04:29:34.857Z,1008.33
2023-05-06T04:30:01.639Z,1008.33
2023-05-06T04:30:34.429Z,1008.33
2023-05-06T04:31:05.759Z,1008.13
2023-05-06T04:31:34.844Z,1008.33
2023-05-06T04:31:54.080Z,1008.33
2023-05-06T04:32:25.493Z,1008.33
2023-05-06T04:32:42.482Z,1008.33
2023-05-06T04:33:14.175Z,1008.33
2023-05-06T04:33:34.885Z,1008.53
2023-05-06T04:34:01.725Z,1008.53
2023-05-06T04:34:34.005Z,1008.53
2023-05-06T04:35:06.039Z,1008.33
2023-05-06T04:35:34.866Z,1008.43
2023-05-06T04:35:54.356Z,1008.43
2023-05-06T04:36:25.202Z,1008.43
2023-05-06T04:36:42.356Z,1008.33
2023-05-06T04:37:14.016Z,1008.33
2023-05-06T04:37:34.845Z,1008.33
2023-05-06T04:38:01.378Z,1008.33
2023-05-06T04:38:35.048Z,1008.33
2023-05-06T04:39:05.412Z,1008.23
2023-05-06T04:39:35.833Z,1008.53
2023-05-06T04:39:53.305Z,1008.53
2023-05-06T04:40:25.370Z,1008.53
2023-05-06T04:40:42.394Z,1008.33
2023-05-06T04:41:14.183Z,1008.33
2023-05-06T04:41:34.914Z,1008.33
2023-05-06T04:42:01.496Z,1008.33
2023-05-06T04:42:34.139Z,1008.33
2023-05-06T04:43:05.302Z,1008.43
2023-05-06T04:43:34.881Z,1008.23
2023-05-06T04:43:54.374Z,1008.23
2023-05-06T04:44:25.469Z,1008.23
2023-05-06T04:44:42.366Z,1008.33
2023-05-06T04:45:14.290Z,1008.33
2023-05-06T04:45:34.855Z,1008.43
2023-05-06T04:46:01.438Z,1008.43
2023-05-06T04:46:33.293Z,1008.43
2023-05-06T04:47:05.308Z,1008.33
2023-05-06T04:47:35.020Z,1008.23
2023-05-06T04:47:53.362Z,1008.23
2023-05-06T04:48:26.349Z,1008.23
2023-05-06T04:48:58.397Z,1008.43
2023-05-06T04:49:29.271Z,1008.43
2023-05-06T04:50:01.656Z,1008.33
2023-05-06T04:50:34.356Z,1008.33
2023-05-06T04:51:05.410Z,1008.53
2023-05-06T04:51:34.846Z,1008.43
2023-05-06T04:51:53.358Z,1008.43
2023-05-06T04:52:26.021Z,1008.43
2023-05-06T04:52:57.289Z,1008.53
2023-05-06T04:53:30.024Z,1008.53
2023-05-06T04:54:01.427Z,1008.43
2023-05-06T04:54:33.375Z,1008.43
2023-05-06T04:55:05.941Z,1008.53
2023-05-06T04:55:34.845Z,1008.63
2023-05-06T04:55:54.305Z,1008.63
2023-05-06T04:56:25.237Z,1008.63
2023-05-06T04:56:42.368Z,1008.43
2023-05-06T04:57:13.296Z,1008.43
2023-05-06T04:57:34.861Z,1008.43
2023-05-06T04:58:02.087Z,1008.43
2023-05-06T04:58:33.372Z,1008.43
2023-05-06T04:59:05.385Z,1008.43
2023-05-06T04:59:37.598Z,1008.63
2023-05-06T05:00:09.441Z,1008.63
2023-05-06T05:00:25.353Z,1008.63
2023-05-06T05:00:43.051Z,1008.43
2023-05-06T05:01:13.418Z,1008.43
2023-05-06T05:01:34.961Z,1008.43
2023-05-06T05:02:02.284Z,1008.43
2023-05-06T05:02:34.361Z,1008.43
2023-05-06T05:03:05.578Z,1008.63
2023-05-06T05:03:35.487Z,1008.74
2023-05-06T05:03:53.381Z,1008.74
2023-05-06T05:04:26.186Z,1008.74
2023-05-06T05:04:58.417Z,1008.43
2023-05-06T05:05:29.461Z,1008.43
2023-05-06T05:06:01.404Z,1008.43
2023-05-06T05:06:33.450Z,1008.43
2023-05-06T05:07:05.287Z,1008.43
2023-05-06T05:07:34.850Z,1008.43
2023-05-06T05:07:53.268Z,1008.43
2023-05-06T05:08:26.099Z,1008.43
2023-05-06T05:08:43.050Z,1008.63
2023-05-06T05:09:13.350Z,1008.63
2023-05-06T05:09:34.916Z,1008.53
2023-05-06T05:10:02.650Z,1008.53
2023-05-06T05:10:34.271Z,1008.53
2023-05-06T05:11:05.284Z,1008.53
2023-05-06T05:11:35.672Z,1008.84
2023-05-06T05:11:53.348Z,1008.84
2023-05-06T05:12:26.071Z,1008.84
2023-05-06T05:12:57.337Z,1008.53
2023-05-06T05:13:29.290Z,1008.53
2023-05-06T05:14:02.296Z,1008.63
2023-05-06T05:14:33.358Z,1008.63
2023-05-06T05:15:05.673Z,1008.43
2023-05-06T05:15:34.871Z,1008.63
2023-05-06T05:15:54.306Z,1008.63
2023-05-06T05:16:25.265Z,1008.63
2023-05-06T05:16:42.553Z,1008.63
2023-05-06T05:17:14.149Z,1008.63
2023-05-06T05:17:34.990Z,1008.43
2023-05-06T05:18:02.275Z,1008.43
2023-05-06T05:18:35.266Z,1008.43
2023-05-06T05:19:07.504Z,1008.53
2023-05-06T05:19:34.830Z,1008.53
2023-05-06T05:19:54.114Z,1008.53
2023-05-06T05:20:25.558Z,1008.53
2023-05-06T05:20:42.452Z,1008.53
2023-05-06T05:21:14.115Z,1008.53
2023-05-06T05:21:34.869Z,1008.74
2023-05-06T05:22:01.709Z,1008.74
2023-05-06T05:22:33.305Z,1008.74
2023-05-06T05:23:05.317Z,1008.63
2023-05-06T05:23:34.943Z,1008.53
2023-05-06T05:23:53.454Z,1008.53
2023-05-06T05:24:26.182Z,1008.53
2023-05-06T05:24:42.701Z,1008.63
2023-05-06T05:25:13.693Z,1008.63
2023-05-06T05:25:34.913Z,1008.63
2023-05-06T05:26:02.069Z,1008.63
2023-05-06T05:26:33.249Z,1008.63
2023-05-06T05:27:05.314Z,1008.63
2023-05-06T05:27:34.865Z,1008.63
2023-05-06T05:27:53.354Z,1008.63
2023-05-06T05:28:26.124Z,1008.63
2023-05-06T05:28:43.572Z,1008.63
2023-05-06T05:29:13.262Z,1008.63
2023-05-06T05:29:34.978Z,1008.74
2023-05-06T05:30:02.691Z,1008.74
2023-05-06T05:30:33.376Z,1008.74
2023-05-06T05:31:05.397Z,1008.53
2023-05-06T05:31:34.902Z,1008.74
2023-05-06T05:31:53.302Z,1008.74
2023-05-06T05:32:26.191Z,1008.74
2023-05-06T05:32:57.343Z,1008.84
2023-05-06T05:33:29.699Z,1008.84
2023-05-06T05:34:01.584Z,1008.74
2023-05-06T05:34:33.347Z,1008.74
2023-05-06T05:35:05.426Z,1008.53
2023-05-06T05:35:34.883Z,1008.74